Time;durP1;ratioP1;P1;durP2;ratioP2;P2;SDS_P1;SDS_P2;PMS_P1;PMS_P2;Temp;Humidity;BMP_temperature;BMP_pressure;BME280_temperature;BME280_humidity;BME280_pressure;Samples;Min_cycle;Max_cycle;Signal;HPM_P1;HPM_P2
2023/07/26 00:01:32;;;;;;;5.05;3.20;;;14.30;51.60;;;;;;5034020;28;20805;-72
2023/07/26 00:03:58;;;;;;;3.50;3.10;;;14.30;51.80;;;;;;5035416;28;20926;-72
2023/07/26 00:06:29;;;;;;;4.90;3.20;;;14.30;51.70;;;;;;5038315;28;20462;-72
2023/07/26 00:08:55;;;;;;;4.80;3.10;;;14.30;52.80;;;;;;5039694;28;20387;-71
2023/07/26 00:11:20;;;;;;;7.63;3.35;;;14.20;54.00;;;;;;5037637;28;20747;-72
2023/07/26 00:13:46;;;;;;;4.55;3.45;;;14.20;53.90;;;;;;5037289;28;20379;-72
2023/07/26 00:16:11;;;;;;;4.00;3.17;;;14.30;54.20;;;;;;5035492;28;20418;-72
2023/07/26 00:18:39;;;;;;;7.82;3.15;;;14.20;54.50;;;;;;5035542;28;20387;-74
2023/07/26 00:21:07;;;;;;;5.63;3.15;;;14.20;54.80;;;;;;5033454;28;20476;-72
2023/07/26 00:23:32;;;;;;;6.57;3.30;;;14.20;55.40;;;;;;5035411;28;20395;-72
2023/07/26 00:25:58;;;;;;;4.03;2.80;;;14.10;55.80;;;;;;5034429;28;20413;-74
2023/07/26 00:28:23;;;;;;;3.08;2.60;;;14.20;55.30;;;;;;5034640;28;20379;-72
2023/07/26 00:30:50;;;;;;;5.15;3.10;;;14.10;55.80;;;;;;5034238;28;20382;-73
2023/07/26 00:33:16;;;;;;;5.63;3.20;;;14.10;56.00;;;;;;5033829;28;20879;-73
2023/07/26 00:35:42;;;;;;;6.65;3.10;;;14.20;55.50;;;;;;5034804;28;20383;-71
2023/07/26 00:38:08;;;;;;;3.58;3.10;;;14.30;55.70;;;;;;5034304;28;20402;-74
2023/07/26 00:40:36;;;;;;;9.85;3.75;;;14.30;55.50;;;;;;5035183;28;20386;-73
2023/07/26 00:43:01;;;;;;;4.60;3.10;;;14.40;55.30;;;;;;5035062;28;20383;-72
2023/07/26 00:45:29;;;;;;;5.23;3.20;;;14.40;54.50;;;;;;5035465;28;20460;-72
2023/07/26 00:47:55;;;;;;;7.63;3.30;;;14.40;54.80;;;;;;5035867;28;20588;-71
2023/07/26 00:50:21;;;;;;;7.50;3.35;;;14.40;55.40;;;;;;5034888;28;20891;-73
2023/07/26 00:52:48;;;;;;;4.47;3.10;;;14.40;55.80;;;;;;5034807;28;20751;-73
2023/07/26 00:55:14;;;;;;;9.15;3.30;;;14.40;55.90;;;;;;5035274;28;20397;-72
2023/07/26 00:57:42;;;;;;;6.50;3.10;;;14.30;55.60;;;;;;5033955;28;20809;-73
2023/07/26 01:00:08;;;;;;;5.63;3.35;;;14.30;56.30;;;;;;5034217;28;20474;-71
2023/07/26 01:02:34;;;;;;;4.38;3.30;;;14.30;56.90;;;;;;5035284;28;20395;-73
2023/07/26 01:05:00;;;;;;;5.05;3.38;;;14.30;57.00;;;;;;5033866;28;20455;-74
2023/07/26 01:07:35;;;;;;;6.93;3.80;;;14.50;56.00;;;;;;5031866;28;20433;-71
2023/07/26 01:10:13;;;;;;;3.90;3.50;;;14.70;51.20;;;;;;5032947;28;20402;-72
2023/07/26 01:13:03;;;;;;;4.03;3.63;;;14.50;53.30;;;;;;5032638;28;20681;-71
2023/07/26 01:15:34;;;;;;;6.80;3.80;;;14.50;54.50;;;;;;5032686;28;20383;-71
2023/07/26 01:18:10;;;;;;;3.70;3.30;;;14.60;54.70;;;;;;5031594;28;20415;-71
2023/07/26 01:20:35;;;;;;;6.18;4.57;;;14.40;54.50;;;;;;5031397;28;20672;-71
2023/07/26 01:23:01;;;;;;;9.40;5.30;;;14.40;54.50;;;;;;5032370;28;20470;-72
2023/07/26 01:25:26;;;;;;;9.23;4.60;;;14.40;52.00;;;;;;5032595;28;20410;-71
2023/07/26 01:27:52;;;;;;;8.00;4.70;;;14.40;52.00;;;;;;5032370;28;20387;-72
2023/07/26 01:30:18;;;;;;;9.23;4.57;;;14.60;50.90;;;;;;5032321;28;20454;-71
2023/07/26 01:32:45;;;;;;;6.03;4.40;;;14.80;46.10;;;;;;5032262;28;20383;-71
2023/07/26 01:35:11;;;;;;;10.85;4.50;;;14.80;46.10;;;;;;5032412;28;20391;-72
2023/07/26 01:37:37;;;;;;;6.28;4.47;;;14.70;45.70;;;;;;5032544;28;20719;-72
2023/07/26 01:40:05;;;;;;;8.10;3.40;;;14.80;46.90;;;;;;5032431;28;20392;-71
2023/07/26 01:42:32;;;;;;;5.88;3.88;;;14.70;48.30;;;;;;5032331;28;20417;-72
2023/07/26 01:45:07;;;;;;;5.10;3.40;;;14.70;49.90;;;;;;5031987;28;20421;-71
2023/07/26 01:47:33;;;;;;;4.00;3.50;;;14.50;51.60;;;;;;5031958;28;20393;-71
2023/07/26 01:49:58;;;;;;;6.57;3.90;;;14.30;53.40;;;;;;5032138;28;20879;-72
2023/07/26 01:52:24;;;;;;;5.45;3.67;;;14.20;55.40;;;;;;5037079;28;20375;-71
2023/07/26 01:54:49;;;;;;;7.57;3.90;;;14.20;55.70;;;;;;5035796;28;20387;-71
2023/07/26 01:57:15;;;;;;;4.53;3.50;;;14.20;55.70;;;;;;5030330;28;20445;-72
2023/07/26 01:59:40;;;;;;;7.70;3.60;;;14.20;56.60;;;;;;5031500;28;20781;-72
2023/07/26 02:02:06;;;;;;;6.65;4.18;;;14.10;57.40;;;;;;5032291;28;20401;-72
2023/07/26 02:04:31;;;;;;;4.00;3.60;;;14.10;56.70;;;;;;5036213;28;20410;-72
2023/07/26 02:06:57;;;;;;;7.10;3.50;;;14.10;57.40;;;;;;5036957;28;20391;-72
2023/07/26 02:09:22;;;;;;;6.47;3.43;;;14.40;55.30;;;;;;5036950;28;20383;-72
2023/07/26 02:11:49;;;;;;;4.82;3.78;;;14.40;54.50;;;;;;5034931;28;20394;-72
2023/07/26 02:14:15;;;;;;;5.53;3.85;;;14.50;54.20;;;;;;5035290;28;20525;-72
2023/07/26 02:16:41;;;;;;;6.18;4.47;;;14.40;54.70;;;;;;5036187;28;20811;-73
2023/07/26 02:19:06;;;;;;;6.47;4.20;;;14.40;55.20;;;;;;5037248;28;20390;-72
2023/07/26 02:21:32;;;;;;;5.15;3.70;;;14.30;55.70;;;;;;5036698;28;20449;-72
2023/07/26 02:23:58;;;;;;;6.13;3.92;;;14.30;56.20;;;;;;5036304;28;20386;-72
2023/07/26 02:26:23;;;;;;;6.20;4.10;;;14.30;55.90;;;;;;5035621;28;20447;-72
2023/07/26 02:28:49;;;;;;;6.07;3.90;;;14.30;56.30;;;;;;5036034;28;20387;-72
2023/07/26 02:31:14;;;;;;;6.28;4.00;;;14.50;55.20;;;;;;5035120;28;20402;-71
2023/07/26 02:33:40;;;;;;;7.97;3.50;;;14.60;54.20;;;;;;5037582;28;20406;-72
2023/07/26 02:36:05;;;;;;;8.97;4.20;;;14.50;54.80;;;;;;5035426;28;20751;-72
2023/07/26 02:38:31;;;;;;;5.67;3.80;;;14.40;56.30;;;;;;5037377;28;20425;-72
2023/07/26 02:40:56;;;;;;;5.57;4.40;;;14.30;57.10;;;;;;5034900;28;20427;-73
2023/07/26 02:43:22;;;;;;;8.23;5.13;;;14.40;54.90;;;;;;5035076;28;20409;-72
2023/07/26 02:45:47;;;;;;;9.57;5.80;;;14.50;53.80;;;;;;5037472;28;20414;-72
2023/07/26 02:48:13;;;;;;;13.60;5.70;;;14.60;52.40;;;;;;5036808;28;20405;-72
2023/07/26 02:50:38;;;;;;;9.15;6.30;;;14.60;50.70;;;;;;5036279;28;20383;-72
2023/07/26 02:53:04;;;;;;;6.40;5.50;;;14.60;49.00;;;;;;5036228;28;20383;-72
2023/07/26 02:55:29;;;;;;;7.90;5.20;;;14.70;49.70;;;;;;5034518;28;20387;-71
2023/07/26 02:57:55;;;;;;;9.15;6.07;;;14.80;47.30;;;;;;5033920;28;20413;-71
2023/07/26 03:00:20;;;;;;;10.85;5.55;;;14.90;45.90;;;;;;5035085;28;20393;-72
2023/07/26 03:02:46;;;;;;;8.43;5.73;;;14.80;47.10;;;;;;5034203;28;20422;-72
2023/07/26 03:05:11;;;;;;;9.80;5.73;;;14.70;47.20;;;;;;5034576;28;20419;-72
2023/07/26 03:07:37;;;;;;;9.48;6.45;;;14.70;47.80;;;;;;5033923;28;20387;-72
2023/07/26 03:10:03;;;;;;;15.90;7.00;;;14.70;46.80;;;;;;5033673;28;20876;-71
2023/07/26 03:12:28;;;;;;;15.85;7.40;;;14.70;47.20;;;;;;5030845;28;20398;-72
2023/07/26 03:14:54;;;;;;;9.07;7.20;;;14.70;47.20;;;;;;5032167;28;20405;-70
2023/07/26 03:17:19;;;;;;;11.80;7.17;;;14.70;47.80;;;;;;5031589;28;20387;-71
2023/07/26 03:19:45;;;;;;;8.93;6.32;;;14.70;47.90;;;;;;5030878;28;20743;-70
2023/07/26 03:22:10;;;;;;;8.60;6.15;;;14.60;48.20;;;;;;5030258;28;20386;-71
2023/07/26 03:24:36;;;;;;;7.60;4.60;;;14.60;49.20;;;;;;5028927;28;20406;-71
2023/07/26 03:27:01;;;;;;;11.20;5.17;;;14.70;49.70;;;;;;5029327;28;20390;-70
2023/07/26 03:29:27;;;;;;;10.25;5.05;;;14.90;48.40;;;;;;5030426;28;20399;-71
2023/07/26 03:31:53;;;;;;;7.93;4.57;;;14.90;48.70;;;;;;5029055;28;20803;-72
2023/07/26 03:34:18;;;;;;;5.55;4.72;;;14.90;48.50;;;;;;5030311;28;20516;-72
2023/07/26 03:36:44;;;;;;;9.73;5.03;;;14.80;48.40;;;;;;5021829;28;20448;-71
2023/07/26 03:39:09;;;;;;;10.73;4.80;;;14.80;49.90;;;;;;5030273;28;20383;-70
2023/07/26 03:41:35;;;;;;;10.17;4.80;;;14.70;48.30;;;;;;5019578;28;20424;-73
2023/07/26 03:44:00;;;;;;;10.20;5.50;;;15.10;43.10;;;;;;5029477;28;20804;-74
2023/07/26 03:46:26;;;;;;;9.25;6.03;;;15.20;71.30;;;;;;5047846;28;20496;-75
2023/07/26 03:48:52;;;;;;;6.93;5.53;;;14.00;87.60;;;;;;5023875;28;20400;-72
2023/07/26 03:51:17;;;;;;;7.50;5.70;;;13.50;99.70;;;;;;5013789;28;20445;-72
2023/07/26 03:53:43;;;;;;;7.30;5.40;;;13.10;96.90;;;;;;5022719;28;20390;-73
2023/07/26 03:56:08;;;;;;;7.63;6.03;;;12.90;99.90;;;;;;5029131;28;20403;-73
2023/07/26 03:58:34;;;;;;;11.10;6.90;;;12.80;99.90;;;;;;5033294;28;20476;-73
2023/07/26 04:00:59;;;;;;;13.65;7.30;;;12.70;99.90;;;;;;5033885;28;20390;-72
2023/07/26 04:03:25;;;;;;;12.30;8.15;;;12.70;99.90;;;;;;5035213;28;20965;-74
2023/07/26 04:05:50;;;;;;;9.47;7.00;;;12.80;99.90;;;;;;5033877;28;20502;-75
2023/07/26 04:08:16;;;;;;;9.77;6.33;;;12.90;99.90;;;;;;5034144;28;20532;-73
2023/07/26 04:10:41;;;;;;;11.27;7.03;;;12.90;99.90;;;;;;5033957;28;20383;-73
2023/07/26 04:13:07;;;;;;;9.90;7.30;;;12.90;99.90;;;;;;5033755;28;20426;-73
2023/07/26 04:15:32;;;;;;;12.73;8.10;;;12.80;99.90;;;;;;5033661;28;20848;-73
2023/07/26 04:17:58;;;;;;;9.20;8.20;;;12.90;99.90;;;;;;5034622;28;20379;-74
2023/07/26 04:20:23;;;;;;;13.37;9.00;;;12.90;99.90;;;;;;5034257;28;20875;-73
2023/07/26 04:22:49;;;;;;;13.90;9.40;;;13.00;99.90;;;;;;5033872;28;20394;-73
2023/07/26 04:25:15;;;;;;;10.60;9.50;;;13.10;99.90;;;;;;5033798;28;20414;-73
2023/07/26 04:27:40;;;;;;;17.77;10.10;;;13.00;99.90;;;;;;5033417;28;20387;-73
2023/07/26 04:30:07;;;;;;;15.30;11.30;;;13.00;99.90;;;;;;5033477;28;20432;-74
2023/07/26 04:32:32;;;;;;;17.55;11.68;;;13.00;99.90;;;;;;5033384;28;20983;-72
2023/07/26 04:34:58;;;;;;;18.47;11.80;;;13.10;99.90;;;;;;5033547;28;20429;-73
2023/07/26 04:37:24;;;;;;;17.73;11.40;;;13.10;99.90;;;;;;5033209;28;20492;-73
2023/07/26 04:39:49;;;;;;;18.87;11.57;;;13.20;99.90;;;;;;5033105;28;20387;-72
2023/07/26 04:42:15;;;;;;;19.80;12.20;;;13.30;99.90;;;;;;5033301;28;20398;-74
2023/07/26 04:44:40;;;;;;;17.23;11.47;;;13.30;99.90;;;;;;5033153;28;20449;-74
2023/07/26 04:47:06;;;;;;;17.20;11.85;;;13.40;99.90;;;;;;5033443;28;20740;-74
2023/07/26 04:49:31;;;;;;;17.33;11.50;;;13.50;99.90;;;;;;5032188;28;20544;-74
2023/07/26 04:51:57;;;;;;;17.38;11.00;;;13.60;99.90;;;;;;5031237;28;20402;-74
2023/07/26 04:54:22;;;;;;;16.50;10.90;;;13.60;99.90;;;;;;5032874;28;20497;-73
2023/07/26 04:56:48;;;;;;;19.07;11.40;;;13.60;99.90;;;;;;5033321;28;20382;-73
2023/07/26 04:59:14;;;;;;;14.70;10.80;;;13.60;99.90;;;;;;5032931;28;20387;-73
2023/07/26 05:01:40;;;;;;;17.02;10.60;;;13.70;99.90;;;;;;5032772;28;20387;-73
2023/07/26 05:04:06;;;;;;;13.57;10.20;;;13.70;99.90;;;;;;5032966;28;20824;-74
2023/07/26 05:06:31;;;;;;;12.87;10.77;;;13.70;99.90;;;;;;5032362;28;20804;-74
2023/07/26 05:08:57;;;;;;;13.57;10.60;;;13.70;99.90;;;;;;5032886;28;20379;-74
2023/07/26 05:11:23;;;;;;;13.55;10.75;;;13.80;99.90;;;;;;5031309;28;20406;-74
2023/07/26 05:13:49;;;;;;;15.57;10.50;;;13.90;99.90;;;;;;5032760;28;20418;-73
2023/07/26 05:16:15;;;;;;;16.27;10.40;;;13.90;99.90;;;;;;5032708;28;20416;-74
2023/07/26 05:18:40;;;;;;;12.30;9.90;;;13.90;99.90;;;;;;5033109;28;20710;-74
2023/07/26 05:21:06;;;;;;;14.60;9.70;;;13.90;99.90;;;;;;5032461;28;20390;-75
2023/07/26 05:23:31;;;;;;;13.67;8.77;;;14.00;99.90;;;;;;5032376;28;20450;-74
2023/07/26 05:25:57;;;;;;;12.40;10.03;;;14.10;99.90;;;;;;5032463;28;20606;-73
2023/07/26 05:28:22;;;;;;;11.85;9.40;;;14.10;99.90;;;;;;5032511;28;20383;-74
2023/07/26 05:30:48;;;;;;;13.77;9.65;;;14.00;99.90;;;;;;5031440;28;20383;-74
2023/07/26 05:33:15;;;;;;;11.32;9.10;;;13.90;99.90;;;;;;5032233;28;20395;-74
2023/07/26 05:35:40;;;;;;;11.88;9.25;;;14.10;99.90;;;;;;5032296;28;20482;-74
2023/07/26 05:38:06;;;;;;;13.90;8.80;;;14.10;99.90;;;;;;5032249;28;20473;-74
2023/07/26 05:40:32;;;;;;;10.52;8.13;;;14.10;99.90;;;;;;5032499;28;20413;-73
2023/07/26 05:42:57;;;;;;;10.70;8.00;;;14.20;99.90;;;;;;5032380;28;20399;-74
2023/07/26 05:45:23;;;;;;;11.70;7.60;;;14.30;99.90;;;;;;5033391;28;20915;-73
2023/07/26 05:47:49;;;;;;;12.30;8.83;;;14.30;99.90;;;;;;5032689;28;20930;-74
2023/07/26 05:50:14;;;;;;;12.33;7.70;;;14.30;99.90;;;;;;5033459;28;20421;-74
2023/07/26 05:52:40;;;;;;;8.05;6.38;;;14.50;99.90;;;;;;5033070;28;20460;-75
2023/07/26 05:55:07;;;;;;;13.02;6.90;;;14.40;97.30;;;;;;5033051;28;20384;-75
2023/07/26 05:57:33;;;;;;;10.68;7.60;;;14.40;99.90;;;;;;5033364;28;20429;-74
2023/07/26 05:59:58;;;;;;;7.30;6.50;;;14.40;99.90;;;;;;5033141;28;20398;-76
2023/07/26 06:02:24;;;;;;;8.70;7.30;;;14.40;98.70;;;;;;5031543;28;20391;-75
2023/07/26 06:04:50;;;;;;;9.18;7.30;;;14.50;94.70;;;;;;5032053;28;20840;-74
2023/07/26 06:07:16;;;;;;;9.95;7.68;;;14.50;94.20;;;;;;5031882;28;20941;-74
2023/07/26 06:09:42;;;;;;;12.73;7.85;;;14.60;94.10;;;;;;5031500;28;20379;-74
2023/07/26 06:12:08;;;;;;;9.90;7.25;;;14.70;91.50;;;;;;5032170;28;20891;-75
2023/07/26 06:14:34;;;;;;;11.82;7.85;;;14.80;84.10;;;;;;5033254;28;20394;-76
2023/07/26 06:16:59;;;;;;;10.18;7.35;;;14.70;80.30;;;;;;5033075;28;20414;-75
2023/07/26 06:19:25;;;;;;;13.68;9.00;;;14.70;82.10;;;;;;5033459;28;20437;-75
2023/07/26 06:21:55;;;;;;;11.10;8.60;;;14.70;87.10;;;;;;5032560;28;20391;-75
2023/07/26 06:24:23;;;;;;;13.57;8.30;;;14.70;86.10;;;;;;5031210;28;20387;-74
2023/07/26 06:26:51;;;;;;;15.07;8.47;;;14.80;83.60;;;;;;5032493;28;20463;-75
2023/07/26 06:29:17;;;;;;;12.70;8.63;;;14.90;83.60;;;;;;5031925;28;20383;-73
2023/07/26 06:31:42;;;;;;;11.50;8.67;;;15.00;82.50;;;;;;5031713;28;20390;-73
2023/07/26 06:34:08;;;;;;;11.90;8.38;;;15.10;80.80;;;;;;5031878;28;20383;-74
2023/07/26 06:36:33;;;;;;;14.70;8.68;;;15.20;79.60;;;;;;5031646;28;20515;-75
2023/07/26 06:38:59;;;;;;;15.20;8.10;;;15.30;77.40;;;;;;5032010;28;20387;-74
2023/07/26 06:41:24;;;;;;;15.10;8.27;;;15.40;71.40;;;;;;5029852;28;20398;-74
2023/07/26 06:43:50;;;;;;;15.35;8.70;;;15.50;67.50;;;;;;5031521;28;20391;-74
2023/07/26 06:46:16;;;;;;;12.25;8.90;;;15.50;65.00;;;;;;5031716;28;20429;-74
2023/07/26 06:48:41;;;;;;;14.77;8.18;;;15.50;63.00;;;;;;5031059;28;20379;-74
2023/07/26 06:51:07;;;;;;;11.07;8.30;;;15.50;61.60;;;;;;5030795;28;20394;-74
2023/07/26 06:53:33;;;;;;;13.23;8.30;;;15.60;61.90;;;;;;5030935;28;20375;-74
2023/07/26 06:55:59;;;;;;;12.23;8.60;;;15.80;56.60;;;;;;5031154;28;20394;-74
2023/07/26 06:58:25;;;;;;;10.60;8.40;;;15.80;59.40;;;;;;5031228;28;20490;-74
2023/07/26 07:00:51;;;;;;;11.45;7.80;;;15.80;58.90;;;;;;5030908;28;20697;-74
2023/07/26 07:03:17;;;;;;;11.80;8.33;;;15.80;59.30;;;;;;5030961;28;20429;-74
2023/07/26 07:05:42;;;;;;;13.27;8.27;;;16.10;57.30;;;;;;5032275;28;20399;-75
2023/07/26 07:08:08;;;;;;;12.67;8.70;;;16.10;53.70;;;;;;5035569;28;20383;-74
2023/07/26 07:10:34;;;;;;;13.95;8.77;;;16.10;55.70;;;;;;5031977;28;20958;-73
2023/07/26 07:12:59;;;;;;;12.02;8.10;;;16.20;54.60;;;;;;5036874;28;20375;-74
2023/07/26 07:15:25;;;;;;;13.23;7.40;;;16.30;55.00;;;;;;5042202;28;20414;-74
2023/07/26 07:17:50;;;;;;;11.00;7.50;;;16.40;51.50;;;;;;5038270;28;20394;-74
2023/07/26 07:20:16;;;;;;;17.13;8.23;;;16.70;50.70;;;;;;5036932;28;20452;-75
2023/07/26 07:22:42;;;;;;;15.10;8.48;;;16.70;49.20;;;;;;5035547;28;20414;-74
2023/07/26 07:25:08;;;;;;;20.63;10.95;;;16.80;47.60;;;;;;5034086;28;20818;-74
2023/07/26 07:27:34;;;;;;;12.70;7.75;;;16.90;50.30;;;;;;5034795;28;20406;-75
2023/07/26 07:29:59;;;;;;;16.92;8.15;;;17.20;49.80;;;;;;5039715;28;20728;-74
2023/07/26 07:32:25;;;;;;;14.07;7.30;;;17.80;44.70;;;;;;5037923;28;20375;-74
2023/07/26 07:34:51;;;;;;;12.23;8.10;;;18.30;43.50;;;;;;5037651;28;20446;-74
2023/07/26 07:37:16;;;;;;;14.27;8.27;;;18.30;42.40;;;;;;5040130;28;20493;-75
2023/07/26 07:39:42;;;;;;;11.80;7.10;;;18.30;40.00;;;;;;5041894;28;20378;-75
2023/07/26 07:42:07;;;;;;;12.43;7.72;;;18.20;39.50;;;;;;5041130;28;20398;-75
2023/07/26 07:44:33;;;;;;;15.33;8.50;;;18.00;39.00;;;;;;5038952;28;20401;-74
2023/07/26 07:46:58;;;;;;;12.87;8.20;;;17.90;42.20;;;;;;5039189;28;20390;-75
2023/07/26 07:49:24;;;;;;;16.60;9.38;;;17.70;40.00;;;;;;5036073;28;20387;-74
2023/07/26 07:51:50;;;;;;;13.73;8.65;;;17.50;41.60;;;;;;5035789;28;20379;-75
2023/07/26 07:54:16;;;;;;;20.27;8.75;;;17.50;43.50;;;;;;5034082;28;20732;-75
2023/07/26 07:56:42;;;;;;;19.90;9.45;;;17.60;43.00;;;;;;5034075;28;20395;-74
2023/07/26 07:59:07;;;;;;;18.02;9.50;;;17.70;42.20;;;;;;5034030;28;20402;-74
2023/07/26 08:01:34;;;;;;;13.57;8.73;;;17.90;41.50;;;;;;5033439;28;20383;-74
2023/07/26 08:03:59;;;;;;;15.50;8.50;;;18.00;41.60;;;;;;5033759;28;20403;-74
2023/07/26 08:06:26;;;;;;;22.13;9.57;;;18.50;39.90;;;;;;5032098;28;20399;-73
2023/07/26 08:08:51;;;;;;;14.90;9.07;;;19.00;38.90;;;;;;5032293;28;20808;-73
2023/07/26 08:11:17;;;;;;;14.30;9.07;;;19.50;37.00;;;;;;5033673;28;20717;-74
2023/07/26 08:13:43;;;;;;;17.60;9.43;;;20.00;35.30;;;;;;5033756;28;20383;-74
2023/07/26 08:16:08;;;;;;;12.63;7.93;;;20.20;33.50;;;;;;5033743;28;20445;-74
2023/07/26 08:18:34;;;;;;;17.53;9.03;;;20.60;32.90;;;;;;5033337;28;20856;-74
2023/07/26 08:21:00;;;;;;;11.95;9.00;;;20.80;32.20;;;;;;5033319;28;20808;-73
2023/07/26 08:23:26;;;;;;;18.53;8.33;;;20.80;31.50;;;;;;5033356;28;20835;-74
2023/07/26 08:25:52;;;;;;;13.45;7.72;;;20.50;31.50;;;;;;5032880;28;20411;-73
2023/07/26 08:28:17;;;;;;;15.67;8.23;;;20.20;32.70;;;;;;5033097;28;20379;-74
2023/07/26 08:30:43;;;;;;;12.10;8.57;;;20.00;32.20;;;;;;5031839;28;20406;-74
2023/07/26 08:33:08;;;;;;;16.23;8.50;;;19.80;32.10;;;;;;5032982;28;20383;-74
2023/07/26 08:35:34;;;;;;;16.80;8.07;;;19.80;33.60;;;;;;5032947;28;20733;-74
2023/07/26 08:38:00;;;;;;;19.70;8.23;;;19.70;33.30;;;;;;5033049;28;20387;-74
2023/07/26 08:40:25;;;;;;;14.32;7.78;;;19.90;31.60;;;;;;5032942;28;20473;-74
2023/07/26 08:42:51;;;;;;;13.70;7.70;;;20.40;31.30;;;;;;5032669;28;20391;-73
2023/07/26 08:45:18;;;;;;;13.57;7.50;;;20.30;30.70;;;;;;5032796;28;20574;-73
2023/07/26 08:47:44;;;;;;;10.57;7.03;;;20.60;30.90;;;;;;5032626;28;20391;-73
2023/07/26 08:50:10;;;;;;;14.85;7.55;;;21.00;29.90;;;;;;5032910;28;20385;-73
2023/07/26 08:52:37;;;;;;;13.90;7.68;;;21.50;28.20;;;;;;5032868;28;20462;-74
2023/07/26 08:55:03;;;;;;;15.55;7.50;;;21.50;27.50;;;;;;5032911;28;20383;-74
2023/07/26 08:57:29;;;;;;;14.77;7.43;;;21.70;27.50;;;;;;5033185;28;20848;-75
2023/07/26 08:59:55;;;;;;;14.25;6.40;;;21.80;26.60;;;;;;5032810;28;20391;-74
2023/07/26 09:02:22;;;;;;;13.52;7.63;;;21.60;26.00;;;;;;5033532;28;20747;-74
2023/07/26 09:04:48;;;;;;;11.75;6.70;;;21.40;26.00;;;;;;5032336;28;20776;-75
2023/07/26 09:07:14;;;;;;;15.10;7.60;;;21.10;27.20;;;;;;5032275;28;20470;-73
2023/07/26 09:09:40;;;;;;;15.60;7.63;;;20.70;28.10;;;;;;5031070;28;20391;-74
2023/07/26 09:12:06;;;;;;;13.45;6.70;;;20.30;30.00;;;;;;5032682;28;20383;-74
2023/07/26 09:14:33;;;;;;;13.38;6.03;;;19.90;30.10;;;;;;5032439;28;20479;-75
2023/07/26 09:17:01;;;;;;;12.13;6.50;;;19.60;30.60;;;;;;5032638;28;20394;-73
2023/07/26 09:19:28;;;;;;;17.00;7.80;;;19.30;31.80;;;;;;5032510;28;20853;-74
2023/07/26 09:21:58;;;;;;;14.32;7.55;;;19.00;32.90;;;;;;5034318;28;20426;-74
2023/07/26 09:24:29;;;;;;;15.50;7.90;;;18.90;33.80;;;;;;5037269;28;20760;-75
2023/07/26 09:27:06;;;;;;;16.20;7.60;;;18.80;33.80;;;;;;5036401;28;20402;-74
2023/07/26 09:29:33;;;;;;;16.20;7.38;;;18.80;34.50;;;;;;5033097;28;20395;-74
2023/07/26 09:31:59;;;;;;;16.27;8.70;;;18.60;35.90;;;;;;5034429;28;20376;-75
2023/07/26 09:34:25;;;;;;;12.83;6.57;;;18.50;37.30;;;;;;5037375;28;20421;-73
2023/07/26 09:36:52;;;;;;;15.55;9.20;;;16.80;69.40;;;;;;5033431;28;20398;-73
2023/07/26 09:39:20;;;;;;;17.17;8.30;;;15.90;74.00;;;;;;5033841;28;20390;-73
2023/07/26 09:41:46;;;;;;;13.02;9.10;;;15.30;80.70;;;;;;5033848;28;20445;-74
2023/07/26 09:44:19;;;;;;;15.00;9.90;;;14.80;88.50;;;;;;5038374;28;20749;-74
2023/07/26 09:46:56;;;;;;;15.52;8.20;;;14.60;97.10;;;;;;5038234;28;20406;-74
2023/07/26 09:49:24;;;;;;;14.27;9.13;;;14.50;99.10;;;;;;5037759;28;20486;-74
2023/07/26 09:51:54;;;;;;;14.50;9.13;;;14.60;99.90;;;;;;5036530;28;20763;-73
2023/07/26 09:54:21;;;;;;;13.82;9.18;;;14.70;99.90;;;;;;5036131;28;20379;-73
2023/07/26 09:56:46;;;;;;;14.02;8.77;;;14.80;99.50;;;;;;5033352;28;20502;-73
2023/07/26 09:59:14;;;;;;;11.30;6.77;;;14.80;84.10;;;;;;5031619;28;20394;-74
2023/07/26 10:01:45;;;;;;;11.23;7.43;;;14.80;76.20;;;;;;5031342;28;20382;-73
2023/07/26 10:04:15;;;;;;;9.25;6.95;;;14.80;81.30;;;;;;5032278;28;20501;-73
2023/07/26 10:06:43;;;;;;;10.70;7.00;;;15.00;80.30;;;;;;5031454;28;20464;-73
2023/07/26 10:09:18;;;;;;;12.10;7.60;;;15.30;84.80;;;;;;5031920;28;20852;-73
2023/07/26 10:11:45;;;;;;;10.37;7.57;;;15.80;65.10;;;;;;5029851;28;20486;-74
2023/07/26 10:14:11;;;;;;;11.63;8.40;;;16.10;60.60;;;;;;5031394;28;20422;-72
2023/07/26 10:16:38;;;;;;;15.63;8.13;;;16.30;60.70;;;;;;5031013;28;20423;-73
2023/07/26 10:19:06;;;;;;;11.63;7.22;;;16.30;54.20;;;;;;5031100;28;20383;-73
2023/07/26 10:21:33;;;;;;;12.02;7.30;;;16.10;53.70;;;;;;5030634;28;20486;-73
2023/07/26 10:24:02;;;;;;;13.88;7.60;;;16.00;55.80;;;;;;5031152;28;20387;-74
2023/07/26 10:26:30;;;;;;;11.05;7.40;;;16.00;59.10;;;;;;5031187;28;20410;-74
2023/07/26 10:28:59;;;;;;;13.88;7.40;;;16.20;57.80;;;;;;5030621;28;20394;-73
2023/07/26 10:31:31;;;;;;;11.20;7.63;;;16.40;53.80;;;;;;5030964;28;20392;-73
2023/07/26 10:33:58;;;;;;;11.93;9.00;;;16.60;53.40;;;;;;5030671;28;20391;-72
2023/07/26 10:36:31;;;;;;;13.68;9.27;;;16.60;57.40;;;;;;5031025;28;20390;-73
2023/07/26 10:39:06;;;;;;;14.25;10.27;;;16.80;53.40;;;;;;5030925;28;20390;-72
2023/07/26 10:41:34;;;;;;;12.63;9.38;;;17.00;55.40;;;;;;5030540;28;20412;-74
2023/07/26 10:44:04;;;;;;;16.27;9.40;;;17.10;49.80;;;;;;5030791;28;20414;-74
2023/07/26 10:46:46;;;;;;;12.60;9.52;;;17.30;48.30;;;;;;5030525;28;20410;-73
2023/07/26 10:49:17;;;;;;;15.93;9.20;;;17.30;49.60;;;;;;5030679;28;20391;-73
2023/07/26 10:52:02;;;;;;;15.38;10.13;;;17.60;43.80;;;;;;5030631;28;20388;-74
2023/07/26 10:54:39;;;;;;;16.83;9.57;;;17.80;45.30;;;;;;5030644;28;20379;-73
2023/07/26 10:57:17;;;;;;;17.77;10.30;;;17.90;43.60;;;;;;5029514;28;20424;-74
2023/07/26 11:00:24;;;;;;;19.53;11.30;;;18.10;43.50;;;;;;5029437;28;20391;-74
2023/07/26 11:02:50;;;;;;;17.58;11.45;;;18.40;47.60;;;;;;5030080;28;20387;-73
2023/07/26 11:05:18;;;;;;;15.63;10.70;;;18.70;43.60;;;;;;5030330;28;20477;-72
2023/07/26 11:08:05;;;;;;;17.25;10.18;;;18.90;42.80;;;;;;5031391;28;20391;-73
2023/07/26 11:10:34;;;;;;;15.88;9.75;;;19.10;38.40;;;;;;5030880;28;20876;-73
2023/07/26 11:13:12;;;;;;;16.55;8.60;;;19.10;41.40;;;;;;5041151;28;20386;-74
2023/07/26 11:15:42;;;;;;;12.80;7.63;;;19.00;40.10;;;;;;5047458;28;20459;-74
2023/07/26 11:18:09;;;;;;;10.25;6.60;;;19.00;41.30;;;;;;5046958;28;20415;-74
2023/07/26 11:20:46;;;;;;;11.47;6.37;;;18.90;37.90;;;;;;5046291;28;20405;-74
2023/07/26 11:23:23;;;;;;;9.80;6.15;;;18.70;37.50;;;;;;5045636;28;20436;-74
2023/07/26 11:25:51;;;;;;;10.57;5.35;;;18.70;35.50;;;;;;5042998;28;20398;-73
2023/07/26 11:28:17;;;;;;;8.75;5.50;;;18.70;36.40;;;;;;5041659;28;20467;-73
2023/07/26 11:30:53;;;;;;;10.55;5.80;;;18.70;37.10;;;;;;5038955;28;20713;-75
2023/07/26 11:33:29;;;;;;;9.47;5.50;;;18.70;38.40;;;;;;5030318;28;20473;-73
2023/07/26 11:35:55;;;;;;;7.10;5.00;;;19.10;37.60;;;;;;5030330;28;20383;-74
2023/07/26 11:38:20;;;;;;;11.07;6.00;;;19.40;35.70;;;;;;5030318;28;20380;-74
2023/07/26 11:40:46;;;;;;;12.25;6.88;;;19.50;36.20;;;;;;5029880;28;20863;-73
2023/07/26 11:43:12;;;;;;;7.73;6.17;;;19.60;36.80;;;;;;5028670;28;20402;-73
2023/07/26 11:45:41;;;;;;;9.68;5.82;;;19.60;38.20;;;;;;5030215;28;20425;-74
2023/07/26 11:48:09;;;;;;;10.30;5.90;;;19.90;34.40;;;;;;5030159;28;20391;-75
2023/07/26 11:50:35;;;;;;;14.75;6.40;;;20.10;32.10;;;;;;5030270;28;20398;-74
2023/07/26 11:53:09;;;;;;;10.20;6.40;;;20.30;29.50;;;;;;5030168;28;20402;-74
2023/07/26 11:55:38;;;;;;;7.88;5.50;;;20.70;29.60;;;;;;5029907;28;20470;-75
2023/07/26 11:58:07;;;;;;;9.98;5.55;;;20.70;29.20;;;;;;5030325;28;20395;-74
2023/07/26 12:00:34;;;;;;;9.35;6.90;;;20.70;29.70;;;;;;5029535;28;20751;-74
2023/07/26 12:03:02;;;;;;;11.93;6.40;;;20.60;31.30;;;;;;5033563;28;20509;-73
2023/07/26 12:05:28;;;;;;;9.70;6.75;;;20.40;32.20;;;;;;5033465;28;20410;-73
2023/07/26 12:07:56;;;;;;;10.80;7.15;;;20.50;31.30;;;;;;5032220;28;20383;-73
2023/07/26 12:10:34;;;;;;;11.90;7.80;;;20.60;33.50;;;;;;5033401;28;20379;-73
2023/07/26 12:13:00;;;;;;;10.45;7.13;;;20.60;32.90;;;;;;5033847;28;20872;-73
2023/07/26 12:15:26;;;;;;;12.77;7.00;;;20.70;34.00;;;;;;5033257;28;20423;-73
2023/07/26 12:18:03;;;;;;;9.25;6.75;;;20.90;30.00;;;;;;5034124;28;20394;-73
2023/07/26 12:20:30;;;;;;;12.20;7.38;;;20.60;29.40;;;;;;5031703;28;20449;-73
2023/07/26 12:22:58;;;;;;;16.70;7.93;;;20.30;30.60;;;;;;5033211;28;20447;-74
2023/07/26 12:25:37;;;;;;;14.47;8.60;;;20.30;33.60;;;;;;5033559;28;20896;-75
2023/07/26 12:28:06;;;;;;;12.93;9.25;;;19.90;37.70;;;;;;5034854;28;20383;-75
2023/07/26 12:30:32;;;;;;;12.70;8.93;;;19.80;40.00;;;;;;5034137;28;20387;-73
2023/07/26 12:33:12;;;;;;;14.85;8.93;;;20.10;37.10;;;;;;5034295;28;20445;-74
2023/07/26 12:35:38;;;;;;;17.33;10.15;;;20.40;37.30;;;;;;5033056;28;20391;-74
2023/07/26 12:38:11;;;;;;;14.10;8.48;;;20.90;39.30;;;;;;5032239;28;20407;-75